Time;durP1;ratioP1;P1;durP2;ratioP2;P2;SDS_P1;SDS_P2;PMS_P1;PMS_P2;Temp;Humidity;BMP_temperature;BMP_pressure;BME280_temperature;BME280_humidity;BME280_pressure;Samples;Min_cycle;Max_cycle;Signal;HPM_P1;HPM_P2
2022/04/01 00:00:10;;;;;;;11.90;9.90;;;;;;;;;;5075045;28;24502;-51
2022/04/01 00:02:35;;;;;;;10.82;8.80;;;;;;;;;;5075988;28;24421;-50
2022/04/01 00:05:01;;;;;;;11.63;9.15;;;;;;;;;;5085784;28;24426;-51
2022/04/01 00:07:26;;;;;;;10.80;9.20;;;;;;;;;;5073955;28;24415;-51
2022/04/01 00:09:51;;;;;;;12.30;9.52;;;;;;;;;;5073576;28;24418;-51
2022/04/01 00:12:17;;;;;;;10.30;9.20;;;;;;;;;;5076845;28;24407;-51
2022/04/01 00:14:42;;;;;;;10.93;9.40;;;;;;;;;;5077557;28;24472;-51
2022/04/01 00:17:07;;;;;;;9.25;8.30;;;;;;;;;;5069101;28;24430;-51
2022/04/01 00:19:32;;;;;;;9.47;8.37;;;;;;;;;;5065132;28;24948;-51
2022/04/01 00:21:58;;;;;;;10.63;8.93;;;;;;;;;;5070925;28;24433;-50
2022/04/01 00:24:24;;;;;;;9.52;8.52;;;;;;;;;;5078636;28;24454;-51
2022/04/01 00:26:49;;;;;;;10.60;9.00;;;;;;;;;;5082761;28;24445;-53
2022/04/01 00:29:17;;;;;;;10.53;9.10;;;;;;;;;;5078442;28;24510;-52
2022/04/01 00:31:42;;;;;;;10.20;8.68;;;;;;;;;;5076565;28;24983;-52
2022/04/01 00:34:16;;;;;;;9.47;8.57;;;;;;;;;;5068022;28;24609;-53
2022/04/01 00:36:46;;;;;;;12.30;8.70;;;;;;;;;;5071031;28;24464;-52
2022/04/01 00:39:16;;;;;;;9.73;8.60;;;;;;;;;;5077974;28;25268;-52
2022/04/01 00:41:44;;;;;;;10.33;8.97;;;;;;;;;;5071837;28;24407;-52
2022/04/01 00:44:20;;;;;;;9.70;8.43;;;;;;;;;;5083526;28;25000;-52
2022/04/01 00:46:46;;;;;;;10.30;8.90;;;;;;;;;;5084871;28;24418;-52
2022/04/01 00:49:11;;;;;;;10.13;9.03;;;;;;;;;;5083283;28;24630;-52
2022/04/01 00:51:37;;;;;;;12.33;8.47;;;;;;;;;;5079182;28;25032;-52
2022/04/01 00:54:03;;;;;;;10.82;8.60;;;;;;;;;;5077543;28;24411;-51
2022/04/01 00:56:30;;;;;;;11.52;8.93;;;;;;;;;;5086360;28;24432;-51
2022/04/01 00:58:56;;;;;;;10.35;8.60;;;;;;;;;;5081846;28;24431;-52
2022/04/01 01:01:21;;;;;;;10.20;8.20;;;;;;;;;;5075614;28;24461;-52
2022/04/01 01:03:46;;;;;;;11.13;9.07;;;;;;;;;;5080563;28;24414;-52
2022/04/01 01:06:11;;;;;;;9.07;8.17;;;;;;;;;;5072828;28;24445;-52
2022/04/01 01:08:36;;;;;;;10.00;8.27;;;;;;;;;;5067331;28;24971;-51
2022/04/01 01:11:02;;;;;;;10.60;9.30;;;;;;;;;;5067983;28;24415;-51
2022/04/01 01:13:29;;;;;;;11.77;8.85;;;;;;;;;;5068988;28;24769;-50
2022/04/01 01:15:54;;;;;;;10.68;8.70;;;;;;;;;;5080689;28;24425;-51
2022/04/01 01:18:21;;;;;;;11.30;8.90;;;;;;;;;;5073851;28;24430;-51
2022/04/01 01:20:46;;;;;;;12.63;9.65;;;;;;;;;;5076599;28;24769;-51
2022/04/01 01:23:12;;;;;;;11.02;9.10;;;;;;;;;;5070141;28;24899;-51
2022/04/01 01:25:38;;;;;;;10.57;9.05;;;;;;;;;;5080438;28;24413;-52
2022/04/01 01:28:03;;;;;;;10.48;8.60;;;;;;;;;;5073696;28;24434;-51
2022/04/01 01:30:29;;;;;;;12.52;8.73;;;;;;;;;;5067401;28;24411;-51
2022/04/01 01:32:54;;;;;;;9.80;8.20;;;;;;;;;;5084662;28;24955;-52
2022/04/01 01:35:19;;;;;;;12.40;9.30;;;;;;;;;;5074434;28;24510;-52
2022/04/01 01:37:45;;;;;;;9.90;8.13;;;;;;;;;;5067942;28;24500;-51
2022/04/01 01:40:10;;;;;;;12.53;9.17;;;;;;;;;;5066570;28;24414;-52
2022/04/01 01:42:35;;;;;;;13.07;9.10;;;;;;;;;;5077084;28;24475;-51
2022/04/01 01:45:01;;;;;;;10.37;9.10;;;;;;;;;;5077850;28;25250;-52
2022/04/01 01:47:26;;;;;;;10.93;8.60;;;;;;;;;;5081226;28;24417;-57
2022/04/01 01:55:19;;;;;;;12.30;8.73;;;;;;;;;;5078650;28;24769;-52
2022/04/01 01:57:44;;;;;;;9.37;7.87;;;;;;;;;;5072799;28;24411;-52
2022/04/01 02:00:13;;;;;;;9.30;8.05;;;;;;;;;;5067640;28;24403;-51
2022/04/01 02:02:39;;;;;;;11.25;9.00;;;;;;;;;;5076277;28;24485;-51
2022/04/01 02:05:06;;;;;;;10.68;8.63;;;;;;;;;;5085385;28;24967;-52
2022/04/01 02:07:31;;;;;;;9.82;8.00;;;;;;;;;;5070422;28;24436;-52
2022/04/01 02:09:56;;;;;;;9.68;8.00;;;;;;;;;;5068227;28;24417;-52
2022/04/01 02:12:21;;;;;;;10.10;8.07;;;;;;;;;;5078358;28;24418;-51
2022/04/01 02:14:46;;;;;;;9.37;8.37;;;;;;;;;;5078116;28;24632;-51
2022/04/01 02:17:12;;;;;;;10.63;8.30;;;;;;;;;;5078554;28;24800;-51
2022/04/01 02:19:37;;;;;;;8.95;7.95;;;;;;;;;;5082522;28;24812;-52
2022/04/01 02:22:05;;;;;;;9.90;7.93;;;;;;;;;;5066862;28;24498;-52
2022/04/01 02:24:31;;;;;;;9.10;8.20;;;;;;;;;;5072052;28;24494;-51
2022/04/01 02:26:56;;;;;;;9.95;8.00;;;;;;;;;;5070012;28;24518;-51
2022/04/01 02:29:22;;;;;;;11.05;7.80;;;;;;;;;;5072206;28;24510;-51
2022/04/01 02:31:49;;;;;;;9.38;7.35;;;;;;;;;;5075037;28;24484;-52
2022/04/01 02:34:14;;;;;;;8.90;8.00;;;;;;;;;;5073197;28;24418;-52
2022/04/01 02:36:39;;;;;;;9.67;8.30;;;;;;;;;;5074707;28;24773;-51
2022/04/01 02:39:05;;;;;;;10.67;7.67;;;;;;;;;;5074551;28;24580;-52
2022/04/01 02:41:31;;;;;;;9.55;7.90;;;;;;;;;;5073581;28;24409;-52
2022/04/01 02:44:08;;;;;;;8.70;7.10;;;;;;;;;;5073441;28;24769;-51
2022/04/01 02:46:34;;;;;;;9.40;6.72;;;;;;;;;;5075260;28;24505;-51
2022/04/01 02:48:59;;;;;;;8.52;6.70;;;;;;;;;;5085936;28;24501;-50
2022/04/01 02:51:25;;;;;;;8.95;7.10;;;;;;;;;;5080456;28;25027;-50
2022/04/01 02:53:50;;;;;;;10.73;7.60;;;;;;;;;;5077879;28;24411;-51
2022/04/01 02:56:15;;;;;;;8.90;7.22;;;;;;;;;;5076943;28;24422;-52
2022/04/01 02:58:40;;;;;;;8.75;7.22;;;;;;;;;;5079804;28;25021;-52
2022/04/01 03:01:05;;;;;;;8.40;7.60;;;;;;;;;;5082433;28;24457;-51
2022/04/01 03:03:31;;;;;;;7.10;6.33;;;;;;;;;;5083984;28;24968;-51
2022/04/01 03:05:57;;;;;;;6.95;6.25;;;;;;;;;;5079347;28;24501;-51
2022/04/01 03:08:22;;;;;;;8.65;6.80;;;;;;;;;;5084758;28;24448;-51
2022/04/01 03:10:47;;;;;;;8.13;6.10;;;;;;;;;;5079875;28;24430;-51
2022/04/01 03:13:12;;;;;;;6.43;5.80;;;;;;;;;;5086933;28;24417;-51
2022/04/01 03:15:38;;;;;;;6.37;5.50;;;;;;;;;;5073301;28;24410;-51
2022/04/01 03:18:04;;;;;;;7.50;6.10;;;;;;;;;;5073356;28;24422;-51
2022/04/01 03:20:29;;;;;;;8.00;6.28;;;;;;;;;;5071220;28;24411;-51
2022/04/01 03:22:55;;;;;;;7.13;5.80;;;;;;;;;;5069988;28;24469;-52
2022/04/01 03:25:20;;;;;;;7.50;5.50;;;;;;;;;;5069062;28;24433;-52
2022/04/01 03:27:46;;;;;;;7.27;5.77;;;;;;;;;;5071279;28;24534;-51
2022/04/01 03:30:14;;;;;;;6.97;5.32;;;;;;;;;;5082891;28;24441;-51
2022/04/01 03:32:40;;;;;;;7.63;5.18;;;;;;;;;;5084802;28;24414;-52
2022/04/01 03:35:07;;;;;;;11.30;5.50;;;;;;;;;;5086351;28;24991;-52
2022/04/01 03:37:32;;;;;;;7.15;5.53;;;;;;;;;;5080110;28;24510;-52
2022/04/01 03:39:58;;;;;;;8.73;6.10;;;;;;;;;;5075581;28;24468;-51
2022/04/01 03:42:23;;;;;;;6.85;5.03;;;;;;;;;;5069496;28;24530;-51
2022/04/01 03:44:48;;;;;;;7.90;5.60;;;;;;;;;;5075899;28;24505;-52
2022/04/01 03:47:17;;;;;;;6.67;5.50;;;;;;;;;;5064745;28;24457;-51
2022/04/01 03:49:51;;;;;;;7.22;5.60;;;;;;;;;;5080411;28;24414;-51
2022/04/01 03:52:17;;;;;;;8.20;5.80;;;;;;;;;;5070869;28;24584;-51
2022/04/01 03:54:43;;;;;;;7.80;6.40;;;;;;;;;;5071504;28;24817;-51
2022/04/01 03:57:09;;;;;;;7.30;6.60;;;;;;;;;;5067729;28;24464;-51
2022/04/01 03:59:41;;;;;;;9.05;6.90;;;;;;;;;;5074154;28;24788;-51
2022/04/01 04:02:11;;;;;;;8.43;6.90;;;;;;;;;;5074235;28;24433;-51
2022/04/01 04:04:36;;;;;;;10.35;6.88;;;;;;;;;;5083119;28;24457;-52
2022/04/01 04:07:02;;;;;;;8.27;6.35;;;;;;;;;;5079235;28;24982;-51
2022/04/01 04:09:28;;;;;;;7.95;6.57;;;;;;;;;;5077266;28;25037;-51
2022/04/01 04:11:54;;;;;;;7.10;6.40;;;;;;;;;;5080097;28;24413;-51
2022/04/01 04:14:20;;;;;;;6.90;6.20;;;;;;;;;;5075264;28;24414;-51
2022/04/01 04:16:46;;;;;;;7.57;6.30;;;;;;;;;;5077285;28;24415;-52
2022/04/01 04:19:24;;;;;;;8.50;6.25;;;;;;;;;;5072528;28;24442;-51
2022/04/01 04:21:54;;;;;;;6.20;5.60;;;;;;;;;;5073477;28;24419;-52
2022/04/01 04:24:24;;;;;;;7.45;6.10;;;;;;;;;;5073085;28;24434;-52
2022/04/01 04:26:51;;;;;;;6.35;5.75;;;;;;;;;;5070000;28;24418;-51
2022/04/01 04:29:16;;;;;;;8.45;6.80;;;;;;;;;;5078470;28;24983;-51
2022/04/01 04:31:43;;;;;;;8.27;6.20;;;;;;;;;;5071654;28;24472;-51
2022/04/01 04:34:09;;;;;;;9.75;6.22;;;;;;;;;;5072250;28;24476;-50
2022/04/01 04:36:42;;;;;;;7.35;6.25;;;;;;;;;;5074913;28;24972;-51
2022/04/01 04:39:09;;;;;;;7.20;6.50;;;;;;;;;;5075200;28;24446;-52
2022/04/01 04:41:35;;;;;;;7.43;6.60;;;;;;;;;;5071182;28;24440;-51
2022/04/01 04:44:00;;;;;;;8.30;6.70;;;;;;;;;;5066779;28;24426;-51
2022/04/01 04:46:26;;;;;;;7.30;6.20;;;;;;;;;;5074325;28;24468;-51
2022/04/01 04:48:53;;;;;;;7.10;6.50;;;;;;;;;;5066450;28;24552;-51
2022/04/01 04:51:21;;;;;;;7.50;6.70;;;;;;;;;;5071355;28;24418;-51
2022/04/01 04:53:46;;;;;;;7.85;6.30;;;;;;;;;;5066957;28;24992;-51
2022/04/01 04:56:12;;;;;;;7.03;6.18;;;;;;;;;;5072103;28;24477;-51
2022/04/01 04:58:39;;;;;;;6.85;5.63;;;;;;;;;;5073907;28;24453;-51
2022/04/01 05:01:19;;;;;;;7.28;6.57;;;;;;;;;;5063518;28;24415;-52
2022/04/01 05:03:56;;;;;;;7.28;6.57;;;;;;;;;;5068599;28;24714;-51
2022/04/01 05:06:25;;;;;;;7.57;5.63;;;;;;;;;;5069135;28;24428;-52
2022/04/01 05:09:03;;;;;;;7.57;6.40;;;;;;;;;;5072488;28;25280;-50
2022/04/01 05:11:33;;;;;;;8.75;6.45;;;;;;;;;;5066818;28;24442;-52
2022/04/01 05:14:00;;;;;;;7.15;6.45;;;;;;;;;;5069654;28;24529;-52
2022/04/01 05:16:44;;;;;;;7.05;6.35;;;;;;;;;;5069166;28;25050;-52
2022/04/01 05:19:09;;;;;;;7.65;6.68;;;;;;;;;;5064614;28;24435;-52
2022/04/01 05:21:48;;;;;;;8.52;6.30;;;;;;;;;;5072155;28;24418;-52
2022/04/01 05:24:15;;;;;;;8.05;6.30;;;;;;;;;;5067809;28;24413;-52
2022/04/01 05:26:41;;;;;;;9.60;7.03;;;;;;;;;;5074727;28;25047;-52
2022/04/01 05:29:09;;;;;;;6.93;6.22;;;;;;;;;;5074859;28;24438;-52
2022/04/01 05:31:35;;;;;;;9.50;7.28;;;;;;;;;;5064471;28;24425;-52
2022/04/01 05:34:07;;;;;;;7.63;6.88;;;;;;;;;;5066603;28;24407;-52
2022/04/01 05:36:33;;;;;;;7.07;6.38;;;;;;;;;;5079179;28;24498;-52
2022/04/01 05:38:59;;;;;;;9.40;6.53;;;;;;;;;;5086764;28;24612;-51
2022/04/01 05:41:25;;;;;;;7.83;6.93;;;;;;;;;;5086175;28;24824;-52
2022/04/01 05:43:50;;;;;;;7.63;6.80;;;;;;;;;;5069412;28;24398;-52
2022/04/01 05:46:16;;;;;;;7.40;6.70;;;;;;;;;;5071463;28;24446;-52
2022/04/01 05:48:42;;;;;;;7.80;7.00;;;;;;;;;;5066425;28;24464;-52
2022/04/01 05:51:07;;;;;;;7.78;6.97;;;;;;;;;;5066514;28;24507;-51
2022/04/01 05:53:33;;;;;;;7.70;7.00;;;;;;;;;;5083623;28;24864;-53
2022/04/01 05:55:59;;;;;;;8.13;7.32;;;;;;;;;;5076107;28;25171;-51
2022/04/01 05:58:24;;;;;;;10.30;8.63;;;;;;;;;;5081875;28;25260;-51
2022/04/01 06:01:07;;;;;;;8.95;8.05;;;;;;;;;;5086162;28;24414;-51
2022/04/01 06:03:42;;;;;;;9.48;8.48;;;;;;;;;;5076718;28;24452;-51
2022/04/01 06:06:14;;;;;;;9.88;8.52;;;;;;;;;;5066666;28;24511;-52
2022/04/01 06:09:04;;;;;;;9.07;8.27;;;;;;;;;;5082530;28;24410;-52
2022/04/01 06:11:49;;;;;;;10.80;8.20;;;;;;;;;;5070768;28;24422;-51
2022/04/01 06:14:22;;;;;;;10.80;8.38;;;;;;;;;;5070445;28;24441;-52
2022/04/01 06:16:49;;;;;;;10.20;9.18;;;;;;;;;;5075850;28;24899;-51
2022/04/01 06:19:25;;;;;;;9.18;8.27;;;;;;;;;;5072121;28;24907;-49
2022/04/01 06:22:04;;;;;;;8.98;8.07;;;;;;;;;;5073167;28;24902;-51
2022/04/01 06:24:32;;;;;;;11.05;9.90;;;;;;;;;;5082654;28;24456;-51
2022/04/01 06:27:00;;;;;;;9.82;8.93;;;;;;;;;;5087027;28;24457;-51
2022/04/01 06:29:25;;;;;;;10.57;9.32;;;;;;;;;;5074501;28;24430;-52
2022/04/01 06:31:57;;;;;;;9.70;8.70;;;;;;;;;;5067594;28;24395;-52
2022/04/01 06:34:27;;;;;;;10.43;9.20;;;;;;;;;;5069560;28;24422;-51
2022/04/01 06:36:57;;;;;;;10.77;8.60;;;;;;;;;;5067966;28;24402;-51
2022/04/01 06:39:28;;;;;;;12.07;10.27;;;;;;;;;;5070611;28;24421;-50
2022/04/01 06:41:56;;;;;;;11.82;10.35;;;;;;;;;;5069294;28;24548;-51
2022/04/01 06:44:21;;;;;;;10.70;9.60;;;;;;;;;;5069214;28;24389;-52
2022/04/01 06:46:48;;;;;;;10.17;9.17;;;;;;;;;;5069557;28;24905;-51
2022/04/01 06:49:14;;;;;;;11.70;10.70;;;;;;;;;;5072483;28;24407;-51
2022/04/01 06:51:39;;;;;;;11.55;10.55;;;;;;;;;;5087249;28;24398;-52
2022/04/01 06:54:05;;;;;;;11.60;10.40;;;;;;;;;;5087465;28;25104;-52
2022/04/01 06:56:30;;;;;;;11.43;10.43;;;;;;;;;;5071310;28;24413;-51
2022/04/01 06:58:55;;;;;;;11.17;10.17;;;;;;;;;;5068936;28;24433;-51
2022/04/01 07:01:21;;;;;;;11.40;10.23;;;;;;;;;;5084556;28;24422;-51
2022/04/01 07:03:46;;;;;;;11.40;10.30;;;;;;;;;;5088614;28;24456;-51
2022/04/01 07:06:11;;;;;;;10.93;9.93;;;;;;;;;;5086765;28;24769;-51
2022/04/01 07:08:36;;;;;;;11.50;10.50;;;;;;;;;;5089395;28;24932;-50
2022/04/01 07:11:02;;;;;;;11.10;10.00;;;;;;;;;;5087185;28;24495;-51
2022/04/01 07:13:27;;;;;;;10.80;9.80;;;;;;;;;;5088770;28;25013;-51
2022/04/01 07:15:53;;;;;;;10.65;9.65;;;;;;;;;;5089012;28;24413;-51
2022/04/01 07:18:18;;;;;;;10.25;9.30;;;;;;;;;;5088822;28;24987;-52
2022/04/01 07:20:44;;;;;;;9.98;9.07;;;;;;;;;;5085808;28;24445;-52
2022/04/01 07:23:09;;;;;;;10.35;9.25;;;;;;;;;;5066045;28;24800;-52
2022/04/01 07:25:34;;;;;;;10.52;9.52;;;;;;;;;;5068796;28;24406;-50
2022/04/01 07:27:59;;;;;;;10.43;9.40;;;;;;;;;;5068678;28;25006;-51
2022/04/01 07:30:25;;;;;;;11.40;9.70;;;;;;;;;;5084676;28;24514;-51
2022/04/01 07:32:54;;;;;;;10.05;9.07;;;;;;;;;;5086696;28;24490;-51
2022/04/01 07:35:20;;;;;;;11.23;10.05;;;;;;;;;;5088666;28;24547;-51
2022/04/01 07:37:46;;;;;;;11.07;10.03;;;;;;;;;;5086744;28;24765;-51
2022/04/01 07:40:13;;;;;;;9.90;8.90;;;;;;;;;;5088484;28;24443;-52
2022/04/01 07:42:38;;;;;;;10.77;9.68;;;;;;;;;;5086557;28;24411;-50
2022/04/01 07:45:04;;;;;;;11.30;9.90;;;;;;;;;;5083026;28;24498;-50
2022/04/01 07:47:31;;;;;;;10.70;9.70;;;;;;;;;;5068384;28;24432;-51
2022/04/01 07:49:56;;;;;;;10.32;9.38;;;;;;;;;;5068325;28;24747;-50
2022/04/01 07:52:22;;;;;;;11.20;10.00;;;;;;;;;;5066363;28;24399;-51
2022/04/01 07:54:48;;;;;;;11.20;10.20;;;;;;;;;;5068057;28;24414;-52
2022/04/01 07:57:13;;;;;;;11.23;10.17;;;;;;;;;;5069072;28;24430;-51
2022/04/01 07:59:39;;;;;;;10.20;9.30;;;;;;;;;;5067981;28;24398;-52
2022/04/01 08:02:05;;;;;;;10.80;9.70;;;;;;;;;;5068033;28;24477;-52
2022/04/01 08:04:30;;;;;;;9.97;9.07;;;;;;;;;;5085116;28;24415;-52
2022/04/01 08:06:55;;;;;;;11.00;10.10;;;;;;;;;;5074339;28;24514;-51
2022/04/01 08:09:21;;;;;;;10.07;9.27;;;;;;;;;;5069320;28;24398;-51
2022/04/01 08:11:46;;;;;;;10.20;9.20;;;;;;;;;;5087824;28;24453;-51
2022/04/01 08:14:12;;;;;;;10.73;9.80;;;;;;;;;;5088338;28;24394;-52
2022/04/01 08:16:37;;;;;;;10.33;9.33;;;;;;;;;;5083173;28;24592;-51
2022/04/01 08:19:03;;;;;;;9.95;9.15;;;;;;;;;;5067402;28;25269;-51
2022/04/01 08:21:30;;;;;;;9.65;8.85;;;;;;;;;;5071054;28;24498;-51
2022/04/01 08:23:55;;;;;;;10.07;9.18;;;;;;;;;;5071040;28;24442;-51
2022/04/01 08:26:21;;;;;;;9.73;8.82;;;;;;;;;;5087154;28;24494;-50
2022/04/01 08:28:46;;;;;;;10.50;9.23;;;;;;;;;;5069258;28;24442;-50
2022/04/01 08:31:11;;;;;;;9.43;8.50;;;;;;;;;;5087921;28;24976;-51
2022/04/01 08:33:37;;;;;;;10.00;9.10;;;;;;;;;;5086969;28;24382;-52
2022/04/01 08:36:02;;;;;;;9.10;8.30;;;;;;;;;;5085101;28;24976;-51
2022/04/01 08:38:28;;;;;;;10.00;9.07;;;;;;;;;;5087868;28;24426;-51
2022/04/01 08:40:54;;;;;;;9.90;9.00;;;;;;;;;;5067146;28;24407;-52
2022/04/01 08:43:27;;;;;;;9.98;9.07;;;;;;;;;;5067011;28;24555;-51
2022/04/01 08:45:52;;;;;;;10.93;9.70;;;;;;;;;;5074359;28;24417;-51
2022/04/01 08:48:17;;;;;;;10.63;9.60;;;;;;;;;;5087449;28;24753;-51
2022/04/01 08:50:42;;;;;;;10.70;9.60;;;;;;;;;;5087280;28;24447;-51
2022/04/01 08:53:08;;;;;;;11.57;10.30;;;;;;;;;;5087460;28;24536;-52
2022/04/01 08:55:33;;;;;;;11.50;10.40;;;;;;;;;;5086204;28;25021;-51
2022/04/01 08:57:58;;;;;;;10.63;9.67;;;;;;;;;;5066665;28;24431;-51
2022/04/01 09:00:23;;;;;;;12.00;10.90;;;;;;;;;;5067121;28;24395;-51
2022/04/01 09:02:57;;;;;;;11.73;10.63;;;;;;;;;;5068469;28;24406;-52
2022/04/01 09:05:22;;;;;;;11.10;10.00;;;;;;;;;;5087316;28;24412;-52
2022/04/01 09:07:47;;;;;;;12.30;11.10;;;;;;;;;;5073824;28;24406;-53
2022/04/01 09:10:12;;;;;;;13.00;11.90;;;;;;;;;;5087242;28;24955;-52
2022/04/01 09:12:48;;;;;;;12.45;11.20;;;;;;;;;;5087096;28;24388;-52
2022/04/01 09:15:13;;;;;;;12.70;11.60;;;;;;;;;;5086907;28;24472;-51
2022/04/01 09:17:39;;;;;;;13.55;12.30;;;;;;;;;;5084671;28;24426;-50
2022/04/01 09:20:06;;;;;;;13.73;12.32;;;;;;;;;;5086953;28;24398;-51
2022/04/01 09:22:31;;;;;;;13.52;12.27;;;;;;;;;;5066040;28;25035;-52
2022/04/01 09:25:02;;;;;;;15.10;13.60;;;;;;;;;;5066685;28;24520;-51
2022/04/01 09:27:47;;;;;;;15.65;14.25;;;;;;;;;;5082260;28;24402;-51
2022/04/01 09:30:22;;;;;;;13.88;12.60;;;;;;;;;;5066572;28;24414;-52
2022/04/01 09:32:49;;;;;;;13.30;12.10;;;;;;;;;;5066160;28;24494;-52
2022/04/01 09:35:14;;;;;;;13.48;12.18;;;;;;;;;;5066363;28;24453;-52
2022/04/01 09:37:41;;;;;;;13.57;12.37;;;;;;;;;;5066393;28;24558;-52
2022/04/01 09:40:07;;;;;;;13.10;11.90;;;;;;;;;;5067414;28;24446;-52
2022/04/01 09:42:32;;;;;;;14.60;13.10;;;;;;;;;;5065698;28;24423;-52
2022/04/01 09:44:58;;;;;;;13.87;12.47;;;;;;;;;;5066299;28;24955;-51
2022/04/01 09:47:23;;;;;;;12.90;11.70;;;;;;;;;;5070084;28;24462;-52
2022/04/01 09:49:52;;;;;;;13.52;12.15;;;;;;;;;;5078609;28;24999;-53
2022/04/01 09:52:20;;;;;;;13.00;11.80;;;;;;;;;;5088907;28;24409;-52
2022/04/01 09:54:55;;;;;;;12.90;11.70;;;;;;;;;;5090365;28;24745;-51
2022/04/01 09:57:21;;;;;;;12.68;10.98;;;;;;;;;;5090486;28;24401;-51
2022/04/01 09:59:47;;;;;;;11.63;10.52;;;;;;;;;;5088612;28;24531;-51
2022/04/01 10:02:13;;;;;;;12.40;11.10;;;;;;;;;;5090500;28;25065;-51
2022/04/01 10:04:38;;;;;;;11.90;10.80;;;;;;;;;;5089862;28;25007;-51
2022/04/01 10:07:04;;;;;;;11.70;10.60;;;;;;;;;;5089948;28;24421;-51
2022/04/01 10:09:29;;;;;;;12.20;10.03;;;;;;;;;;5089945;28;24449;-51
2022/04/01 10:11:57;;;;;;;11.27;10.10;;;;;;;;;;5089148;28;24425;-51
2022/04/01 10:14:24;;;;;;;10.25;9.15;;;;;;;;;;5088061;28;24413;-51
2022/04/01 10:16:50;;;;;;;10.65;9.55;;;;;;;;;;5074575;28;24894;-52
2022/04/01 10:19:18;;;;;;;10.63;9.53;;;;;;;;;;5069896;28;24969;-52
2022/04/01 10:21:44;;;;;;;11.27;9.35;;;;;;;;;;5070759;28;24433;-51
2022/04/01 10:24:23;;;;;;;9.63;8.73;;;;;;;;;;5069610;28;24407;-52
2022/04/01 10:26:55;;;;;;;10.10;8.60;;;;;;;;;;5069859;28;24383;-52
2022/04/01 10:29:21;;;;;;;9.20;8.30;;;;;;;;;;5069605;28;24426;-52
2022/04/01 10:32:12;;;;;;;9.30;8.40;;;;;;;;;;5076895;28;24415;-51
2022/04/01 10:34:44;;;;;;;8.48;7.57;;;;;;;;;;5089740;28;24497;-51
2022/04/01 10:37:13;;;;;;;8.50;7.70;;;;;;;;;;5089968;28;24398;-51
2022/04/01 10:39:51;;;;;;;8.30;7.50;;;;;;;;;;5089574;28;24792;-51
2022/04/01 10:42:17;;;;;;;8.60;7.80;;;;;;;;;;5082385;28;24778;-52
2022/04/01 10:44:46;;;;;;;10.63;7.80;;;;;;;;;;5068878;28;24383;-52
2022/04/01 10:47:11;;;;;;;9.32;7.70;;;;;;;;;;5069553;28;24490;-52
2022/04/01 10:52:22;;;;;;;9.90;7.88;;;;;;;;;;5072505;28;24998;-51
2022/04/01 10:54:49;;;;;;;9.05;8.15;;;;;;;;;;5089464;28;24935;-52
2022/04/01 10:57:28;;;;;;;8.95;8.02;;;;;;;;;;5088370;28;24402;-50
2022/04/01 10:59:54;;;;;;;9.50;8.50;;;;;;;;;;5089373;28;24498;-51
2022/04/01 11:02:20;;;;;;;9.70;8.70;;;;;;;;;;5089005;28;25003;-51
2022/04/01 11:04:46;;;;;;;9.80;8.10;;;;;;;;;;5080428;28;24437;-51
2022/04/01 11:07:12;;;;;;;8.80;7.68;;;;;;;;;;5089603;28;24799;-51
2022/04/01 11:09:42;;;;;;;8.63;7.72;;;;;;;;;;5089461;28;24385;-50
2022/04/01 11:12:20;;;;;;;11.00;8.32;;;;;;;;;;5086928;28;24418;-51
2022/04/01 11:17:34;;;;;;;9.93;8.85;;;;;;;;;;5068901;28;24445;-51
2022/04/01 11:20:10;;;;;;;9.20;8.30;;;;;;;;;;5068928;28;24457;-52
2022/04/01 11:22:41;;;;;;;9.60;8.55;;;;;;;;;;5082844;28;24960;-52
2022/04/01 11:25:07;;;;;;;11.48;9.27;;;;;;;;;;5086865;28;24500;-52
2022/04/01 11:27:34;;;;;;;9.55;8.65;;;;;;;;;;5088486;28;24452;-52
2022/04/01 11:30:09;;;;;;;8.73;7.90;;;;;;;;;;5088535;28;24447;-52
2022/04/01 11:32:35;;;;;;;9.50;8.50;;;;;;;;;;5086429;28;24587;-52
2022/04/01 11:35:00;;;;;;;10.25;9.15;;;;;;;;;;5088412;28;24408;-52
2022/04/01 11:37:26;;;;;;;9.50;8.60;;;;;;;;;;5088722;28;24845;-51
2022/04/01 11:39:51;;;;;;;9.57;8.50;;;;;;;;;;5088789;28;24901;-52
2022/04/01 11:42:16;;;;;;;9.73;8.73;;;;;;;;;;5074441;28;24762;-52
2022/04/01 11:44:52;;;;;;;9.77;8.77;;;;;;;;;;5068990;28;24500;-52
2022/04/01 11:47:24;;;;;;;9.40;8.40;;;;;;;;;;5068241;28;24494;-52
2022/04/01 11:50:04;;;;;;;8.93;8.03;;;;;;;;;;5068453;28;25217;-51
2022/04/01 11:52:40;;;;;;;8.75;7.45;;;;;;;;;;5068451;28;24504;-52
2022/04/01 11:55:11;;;;;;;9.53;8.10;;;;;;;;;;5083492;28;24411;-51
2022/04/01 11:57:36;;;;;;;8.57;7.68;;;;;;;;;;5083530;28;24816;-52
2022/04/01 12:00:02;;;;;;;9.27;8.30;;;;;;;;;;5067860;28;24403;-52
2022/04/01 12:02:28;;;;;;;7.50;6.70;;;;;;;;;;5068638;28;24397;-52
2022/04/01 12:04:53;;;;;;;11.13;7.63;;;;;;;;;;5077790;28;24515;-52
2022/04/01 12:10:16;;;;;;;8.60;7.47;;;;;;;;;;5054880;28;24829;-52
2022/04/01 12:12:51;;;;;;;7.82;7.03;;;;;;;;;;5088273;28;24392;-51
2022/04/01 12:15:16;;;;;;;9.82;6.88;;;;;;;;;;5085410;28;25023;-51
2022/04/01 12:17:50;;;;;;;9.03;7.10;;;;;;;;;;5087927;28;24422;-51
2022/04/01 12:20:15;;;;;;;8.75;7.40;;;;;;;;;;5087624;28;24485;-52
2022/04/01 12:22:41;;;;;;;9.00;6.77;;;;;;;;;;5086068;28;24482;-52
2022/04/01 12:25:06;;;;;;;7.38;6.57;;;;;;;;;;5083802;28;24460;-51
2022/04/01 12:27:31;;;;;;;9.87;6.77;;;;;;;;;;5087499;28;24421;-52
2022/04/01 12:29:58;;;;;;;7.30;6.50;;;;;;;;;;5088109;28;24420;-51
2022/04/01 12:32:24;;;;;;;8.63;6.10;;;;;;;;;;5087365;28;24421;-52
2022/04/01 12:34:51;;;;;;;7.65;6.60;;;;;;;;;;5087470;28;24398;-51
2022/04/01 12:37:16;;;;;;;9.13;6.85;;;;;;;;;;5085177;28;24792;-52
2022/04/01 12:39:45;;;;;;;7.90;6.30;;;;;;;;;;5087720;28;24917;-51
2022/04/01 12:42:11;;;;;;;6.90;6.20;;;;;;;;;;5086923;28;24383;-52
2022/04/01 12:44:38;;;;;;;9.00;7.13;;;;;;;;;;5072564;28;24974;-51
2022/04/01 12:47:03;;;;;;;7.10;6.40;;;;;;;;;;5067680;28;24410;-52
2022/04/01 12:49:32;;;;;;;7.00;6.20;;;;;;;;;;5067265;28;24405;-51
2022/04/01 12:51:57;;;;;;;9.02;6.72;;;;;;;;;;5065081;28;24832;-52
2022/04/01 12:54:23;;;;;;;9.20;6.70;;;;;;;;;;5065934;28;24478;-51
2022/04/01 12:56:50;;;;;;;7.10;6.40;;;;;;;;;;5066553;28;25040;-51
2022/04/01 12:59:16;;;;;;;7.23;6.20;;;;;;;;;;5072608;28;24454;-53
2022/04/01 13:01:42;;;;;;;8.73;6.80;;;;;;;;;;5078561;28;24410;-53
2022/04/01 13:04:16;;;;;;;7.78;6.25;;;;;;;;;;5082258;28;24403;-51
2022/04/01 13:06:42;;;;;;;8.20;6.38;;;;;;;;;;5075496;28;25333;-50
2022/04/01 13:09:08;;;;;;;6.87;6.17;;;;;;;;;;5070972;28;24540;-51
2022/04/01 13:11:37;;;;;;;6.13;5.53;;;;;;;;;;5066766;28;24436;-50
2022/04/01 13:14:17;;;;;;;8.55;5.80;;;;;;;;;;5066448;28;24780;-51
2022/04/01 13:16:43;;;;;;;6.80;5.60;;;;;;;;;;5066631;28;24423;-52
2022/04/01 13:19:18;;;;;;;8.67;6.53;;;;;;;;;;5079305;28;24474;-52
2022/04/01 13:21:43;;;;;;;8.57;6.85;;;;;;;;;;5086589;28;24386;-51
2022/04/01 13:24:09;;;;;;;8.70;6.23;;;;;;;;;;5082762;28;24418;-52
2022/04/01 13:26:34;;;;;;;8.00;6.20;;;;;;;;;;5066875;28;24407;-52
2022/04/01 13:28:59;;;;;;;8.60;5.82;;;;;;;;;;5067516;28;24445;-51
2022/04/01 13:31:25;;;;;;;7.90;6.20;;;;;;;;;;5066341;28;24423;-51
2022/04/01 13:33:50;;;;;;;6.93;6.23;;;;;;;;;;5066461;28;24788;-52
2022/04/01 13:36:15;;;;;;;7.53;6.40;;;;;;;;;;5066810;28;24726;-55
2022/04/01 13:38:40;;;;;;;8.20;6.30;;;;;;;;;;5066800;28;25262;-51
2022/04/01 13:41:05;;;;;;;7.47;6.00;;;;;;;;;;5086359;28;24474;-52
2022/04/01 13:43:30;;;;;;;7.55;6.50;;;;;;;;;;5086759;28;24389;-53
2022/04/01 13:45:57;;;;;;;6.88;6.18;;;;;;;;;;5086623;28;24504;-53
2022/04/01 13:48:24;;;;;;;6.40;5.80;;;;;;;;;;5086787;28;24485;-52
2022/04/01 13:50:49;;;;;;;7.50;6.40;;;;;;;;;;5085121;28;24441;-51
2022/04/01 13:53:14;;;;;;;12.38;7.00;;;;;;;;;;5086243;28;24886;-52
2022/04/01 13:55:39;;;;;;;9.70;6.40;;;;;;;;;;5085760;28;24398;-52
2022/04/01 13:58:04;;;;;;;8.80;6.70;;;;;;;;;;5086207;28;24462;-52
2022/04/01 14:00:30;;;;;;;8.18;6.35;;;;;;;;;;5072641;28;24835;-52
2022/04/01 14:02:55;;;;;;;7.47;6.73;;;;;;;;;;5083136;28;24402;-52
2022/04/01 14:05:20;;;;;;;8.50;6.40;;;;;;;;;;5077439;28;25211;-52
2022/04/01 14:07:45;;;;;;;9.95;6.40;;;;;;;;;;5070493;28;24495;-52
2022/04/01 14:10:10;;;;;;;7.97;6.22;;;;;;;;;;5074636;28;24500;-53
2022/04/01 14:12:35;;;;;;;6.80;6.10;;;;;;;;;;5074003;28;24479;-51
2022/04/01 14:15:01;;;;;;;7.93;6.80;;;;;;;;;;5076761;28;24417;-52
2022/04/01 14:17:26;;;;;;;6.73;6.03;;;;;;;;;;5072633;28;24521;-52
2022/04/01 14:19:52;;;;;;;7.40;6.40;;;;;;;;;;5072038;28;24410;-52
2022/04/01 14:22:17;;;;;;;7.33;6.50;;;;;;;;;;5065201;28;24499;-52
2022/04/01 14:24:42;;;;;;;8.13;6.60;;;;;;;;;;5068429;28;24515;-51
2022/04/01 14:27:07;;;;;;;8.73;6.30;;;;;;;;;;5075921;28;24953;-52
2022/04/01 14:32:16;;;;;;;7.13;6.00;;;;;;;;;;5070636;28;25010;-52
2022/04/01 14:34:41;;;;;;;7.72;6.28;;;;;;;;;;5068785;28;25043;-52
2022/04/01 14:37:07;;;;;;;7.20;5.80;;;;;;;;;;5070504;28;24430;-52
2022/04/01 14:39:36;;;;;;;9.43;6.20;;;;;;;;;;5069129;28;24438;-53
2022/04/01 14:42:02;;;;;;;7.55;5.35;;;;;;;;;;5064603;28;24458;-52
2022/04/01 14:44:27;;;;;;;7.15;5.72;;;;;;;;;;5067460;28;24430;-52
2022/04/01 14:46:53;;;;;;;8.43;5.97;;;;;;;;;;5078762;28;24838;-51
2022/04/01 14:49:18;;;;;;;11.35;6.00;;;;;;;;;;5063976;28;24437;-51
2022/04/01 14:51:43;;;;;;;9.10;5.67;;;;;;;;;;5077343;28;24445;-52